Time;durP1;ratioP1;P1;durP2;ratioP2;P2;SDS_P1;SDS_P2;PMS_P1;PMS_P2;Temp;Humidity;BMP_temperature;BMP_pressure;BME280_temperature;BME280_humidity;BME280_pressure;Samples;Min_cycle;Max_cycle;Signal;HPM_P1;HPM_P2
2022/04/26 03:36:51;;;;;;;28.73;20.08;;;7.70;99.90;;;;;;5069126;28;20066;-82
2022/04/26 03:39:16;;;;;;;23.92;18.67;;;7.70;99.90;;;;;;5086339;28;20051;-82
2022/04/26 03:41:42;;;;;;;24.95;18.27;;;7.70;99.90;;;;;;5101374;28;20078;-82
2022/04/26 03:44:08;;;;;;;24.90;19.10;;;7.60;99.90;;;;;;5082430;28;20047;-81
2022/04/26 03:46:34;;;;;;;24.48;19.02;;;7.60;99.90;;;;;;5084932;28;20051;-82
2022/04/26 03:48:59;;;;;;;27.42;19.35;;;7.50;99.90;;;;;;5067578;28;20078;-80
2022/04/26 03:51:25;;;;;;;24.05;19.27;;;7.60;99.90;;;;;;5069905;28;20124;-78
2022/04/26 03:53:51;;;;;;;26.17;19.60;;;7.50;99.90;;;;;;5085773;28;20103;-82
2022/04/26 03:56:17;;;;;;;27.98;19.92;;;7.50;99.90;;;;;;5060034;28;20274;-81
2022/04/26 03:58:43;;;;;;;28.40;20.02;;;7.50;99.90;;;;;;5079286;28;20502;-81
2022/04/26 04:01:08;;;;;;;24.67;18.63;;;7.50;99.90;;;;;;5080059;28;20429;-80
2022/04/26 04:03:38;;;;;;;27.40;19.23;;;7.40;99.90;;;;;;5086951;28;20513;-82
2022/04/26 04:06:04;;;;;;;25.80;19.63;;;7.40;99.90;;;;;;5088501;28;20051;-82
2022/04/26 04:08:30;;;;;;;26.42;20.30;;;7.40;99.90;;;;;;5107902;28;20054;-82
2022/04/26 04:10:56;;;;;;;27.10;18.15;;;7.40;99.90;;;;;;5105145;28;20043;-82
2022/04/26 04:13:21;;;;;;;26.02;19.70;;;7.30;99.90;;;;;;5089110;28;20044;-81
2022/04/26 04:15:47;;;;;;;29.38;20.63;;;7.40;99.90;;;;;;5087780;28;20151;-81
2022/04/26 04:20:58;;;;;;;26.75;20.42;;;7.30;99.90;;;;;;5089848;28;20059;-82
2022/04/26 04:23:24;;;;;;;30.55;21.15;;;7.30;99.90;;;;;;5088712;27;20753;-81
2022/04/26 04:25:49;;;;;;;25.50;19.80;;;7.30;99.90;;;;;;5112268;27;20150;-81
2022/04/26 04:28:15;;;;;;;25.73;20.17;;;7.30;99.90;;;;;;5095296;27;20043;-83
2022/04/26 04:30:42;;;;;;;30.15;20.33;;;7.30;99.90;;;;;;5112028;27;20042;-81
2022/04/26 04:33:08;;;;;;;24.77;19.77;;;7.30;99.90;;;;;;5117888;27;20099;-82
2022/04/26 04:35:34;;;;;;;22.52;18.60;;;7.30;99.90;;;;;;5125975;27;20405;-80
2022/04/26 04:38:00;;;;;;;27.10;17.52;;;7.30;99.90;;;;;;5127934;27;20466;-80
2022/04/26 04:40:26;;;;;;;24.33;17.40;;;7.30;99.90;;;;;;5125499;27;20050;-79
2022/04/26 04:42:52;;;;;;;20.48;16.88;;;7.40;99.90;;;;;;5125471;27;20453;-81
2022/04/26 04:45:18;;;;;;;23.98;17.25;;;7.40;99.90;;;;;;5124200;27;20521;-81
2022/04/26 04:47:45;;;;;;;24.45;17.55;;;7.40;99.90;;;;;;5091255;27;20273;-81
2022/04/26 04:50:10;;;;;;;24.58;17.42;;;7.40;99.90;;;;;;5108463;27;20209;-81
2022/04/26 04:52:36;;;;;;;25.20;15.70;;;7.50;99.90;;;;;;5093875;27;20034;-81
2022/04/26 04:55:03;;;;;;;21.85;14.15;;;7.40;99.90;;;;;;5106761;27;20512;-81
2022/04/26 04:57:29;;;;;;;18.33;13.02;;;7.50;99.90;;;;;;5108839;27;20043;-80
2022/04/26 04:59:57;;;;;;;22.67;14.98;;;7.50;99.90;;;;;;5109886;27;20046;-82
2022/04/26 05:02:23;;;;;;;22.67;13.63;;;7.50;99.90;;;;;;5091094;27;20237;-83
2022/04/26 05:04:49;;;;;;;19.95;12.85;;;7.60;99.90;;;;;;5125325;27;20062;-82
2022/04/26 05:07:17;;;;;;;22.92;13.15;;;7.60;99.90;;;;;;5110333;27;20045;-82
2022/04/26 05:09:43;;;;;;;19.02;12.52;;;7.60;99.90;;;;;;5126160;27;20053;-81
2022/04/26 05:12:10;;;;;;;20.98;11.43;;;7.60;99.90;;;;;;5074231;27;20046;-79
2022/04/26 05:14:38;;;;;;;17.50;11.23;;;7.60;99.90;;;;;;5109751;27;20085;-82
2022/04/26 05:17:04;;;;;;;20.13;11.85;;;7.70;99.90;;;;;;5108538;27;20038;-82
2022/04/26 05:19:30;;;;;;;20.98;11.18;;;7.70;99.90;;;;;;5110213;27;20531;-82
2022/04/26 05:21:56;;;;;;;20.02;10.57;;;7.70;99.90;;;;;;5109200;27;20074;-82
2022/04/26 05:27:06;;;;;;;17.05;10.43;;;7.70;99.90;;;;;;5108691;27;20043;-82
2022/04/26 05:29:38;;;;;;;17.38;10.55;;;7.70;99.90;;;;;;5054769;28;20293;-83
2022/04/26 05:32:04;;;;;;;18.83;10.20;;;7.70;99.90;;;;;;5112994;27;20038;-81
2022/04/26 05:34:30;;;;;;;15.23;8.95;;;7.80;99.90;;;;;;5086423;28;20112;-82
2022/04/26 05:36:57;;;;;;;19.92;9.50;;;7.80;99.90;;;;;;5097825;27;20088;-79
2022/04/26 05:39:22;;;;;;;15.82;9.70;;;7.80;99.90;;;;;;5115279;27;20059;-82
2022/04/26 05:41:48;;;;;;;15.40;8.70;;;7.80;99.90;;;;;;5080825;28;20052;-80
2022/04/26 05:44:14;;;;;;;18.23;9.70;;;7.80;99.90;;;;;;5086758;28;20048;-81
2022/04/26 05:46:40;;;;;;;14.93;9.20;;;7.90;99.90;;;;;;5068288;28;20090;-81
2022/04/26 05:49:06;;;;;;;18.02;9.02;;;7.90;99.90;;;;;;5099181;28;20039;-82
2022/04/26 05:51:32;;;;;;;15.93;8.75;;;7.90;99.90;;;;;;5119156;27;20401;-82
2022/04/26 05:53:58;;;;;;;12.70;8.10;;;7.90;99.90;;;;;;5045501;28;20298;-80
2022/04/26 05:56:24;;;;;;;12.93;8.05;;;8.00;99.90;;;;;;5078791;28;20126;-82
2022/04/26 05:58:50;;;;;;;18.30;8.63;;;8.00;99.90;;;;;;5067627;28;20056;-82
2022/04/26 06:01:16;;;;;;;15.65;8.10;;;8.00;99.90;;;;;;5112265;28;20067;-82
2022/04/26 06:03:42;;;;;;;15.68;8.20;;;8.10;99.90;;;;;;5075999;28;20513;-81
2022/04/26 06:06:08;;;;;;;12.43;7.45;;;8.10;99.90;;;;;;5091236;28;20257;-81
2022/04/26 06:08:34;;;;;;;13.90;7.45;;;8.10;99.90;;;;;;5103609;28;20476;-82
2022/04/26 06:10:59;;;;;;;15.68;7.43;;;8.20;99.90;;;;;;5101420;28;20039;-80
2022/04/26 06:13:25;;;;;;;18.02;7.95;;;8.10;99.90;;;;;;5104401;28;20071;-81
2022/04/26 06:15:51;;;;;;;14.65;7.97;;;8.10;99.90;;;;;;5092612;28;20059;-83
2022/04/26 06:18:17;;;;;;;12.48;7.88;;;8.10;99.90;;;;;;5088278;28;20035;-82
2022/04/26 06:20:43;;;;;;;15.05;7.47;;;8.10;99.90;;;;;;5069849;28;20494;-83
2022/04/26 06:23:09;;;;;;;12.93;7.65;;;8.10;99.90;;;;;;5048628;28;20100;-82
2022/04/26 06:25:37;;;;;;;13.80;7.25;;;8.10;99.90;;;;;;5096802;28;20650;-82
2022/04/26 06:28:09;;;;;;;13.10;6.78;;;8.20;99.90;;;;;;5083408;27;20486;-81
2022/04/26 06:30:38;;;;;;;13.57;7.65;;;8.30;99.90;;;;;;5114758;27;20086;-81
2022/04/26 06:33:05;;;;;;;12.75;6.82;;;8.30;99.90;;;;;;5083886;27;20054;-80
2022/04/26 06:35:31;;;;;;;14.43;7.85;;;8.40;99.90;;;;;;5123645;27;20402;-83
2022/04/26 06:37:58;;;;;;;12.65;6.47;;;8.40;99.90;;;;;;5086608;27;20035;-80
2022/04/26 06:40:30;;;;;;;13.88;6.93;;;8.50;99.90;;;;;;5089903;27;20774;-80
2022/04/26 06:42:58;;;;;;;14.75;6.90;;;8.60;99.90;;;;;;5103885;27;20042;-81
2022/04/26 06:45:24;;;;;;;12.57;6.70;;;8.70;99.90;;;;;;5091363;27;20054;-81
2022/04/26 06:47:50;;;;;;;13.90;6.63;;;8.70;99.90;;;;;;5089271;27;20425;-82
2022/04/26 06:50:17;;;;;;;12.35;6.40;;;8.80;99.90;;;;;;5107524;27;20042;-79
2022/04/26 06:52:43;;;;;;;10.57;6.30;;;8.80;99.90;;;;;;5122396;27;20042;-80
2022/04/26 06:55:09;;;;;;;15.20;6.95;;;8.90;99.90;;;;;;5107158;27;20491;-81
2022/04/26 06:57:38;;;;;;;10.63;6.78;;;9.00;99.90;;;;;;5105255;27;20138;-82
2022/04/26 07:00:08;;;;;;;10.88;6.60;;;9.00;99.90;;;;;;5084891;27;20055;-80
2022/04/26 07:02:34;;;;;;;;;;;9.00;99.90;;;;;;5107492;27;20078;-81
2022/04/26 07:05:00;;;;;;;11.05;6.00;;;9.00;99.90;;;;;;5106391;27;19983;-81
2022/04/26 07:07:26;;;;;;;11.85;7.07;;;9.10;99.90;;;;;;5108205;27;20043;-81
2022/04/26 07:09:52;;;;;;;13.27;6.22;;;9.10;99.90;;;;;;5126078;27;20268;-81
2022/04/26 07:12:18;;;;;;;11.82;6.03;;;9.10;99.90;;;;;;5120828;27;20556;-82
2022/04/26 07:14:44;;;;;;;11.77;5.78;;;9.20;99.90;;;;;;5103459;27;20039;-81
2022/04/26 07:17:11;;;;;;;11.00;5.22;;;9.20;99.90;;;;;;5121267;27;20042;-80
2022/04/26 07:19:37;;;;;;;8.18;4.85;;;9.20;99.90;;;;;;5103005;27;20051;-80
2022/04/26 07:22:08;;;;;;;11.20;4.38;;;9.10;99.90;;;;;;5108526;27;20051;-80
2022/04/26 07:24:34;;;;;;;10.32;5.05;;;9.20;99.90;;;;;;5084174;27;20042;-78
2022/04/26 07:27:00;;;;;;;9.52;4.75;;;9.20;99.90;;;;;;5101634;28;20461;-80
2022/04/26 07:29:26;;;;;;;9.70;4.35;;;9.20;99.90;;;;;;5106732;27;20294;-84
2022/04/26 07:31:52;;;;;;;13.10;5.05;;;9.30;99.90;;;;;;5101243;27;20576;-83
2022/04/26 07:34:21;;;;;;;11.88;4.70;;;9.50;99.90;;;;;;5105381;27;20401;-82
2022/04/26 07:37:05;;;;;;;9.63;5.35;;;9.60;99.90;;;;;;5115813;27;20058;-80
2022/04/26 07:39:33;;;;;;;12.80;4.78;;;9.80;99.90;;;;;;5106018;27;20473;-82
2022/04/26 07:42:01;;;;;;;10.73;4.35;;;9.90;99.90;;;;;;5110433;27;20046;-84
2022/04/26 07:44:28;;;;;;;8.32;3.95;;;10.00;99.90;;;;;;5080273;27;20086;-82
2022/04/26 07:46:54;;;;;;;9.60;4.32;;;9.90;99.90;;;;;;5098708;27;20050;-81
2022/04/26 07:49:22;;;;;;;9.98;3.80;;;9.80;99.90;;;;;;5113732;27;20362;-80
2022/04/26 07:51:48;;;;;;;10.95;3.80;;;9.70;99.90;;;;;;5100136;27;20386;-81
2022/04/26 07:54:16;;;;;;;9.00;3.75;;;9.60;99.90;;;;;;5109579;27;20108;-83
2022/04/26 07:56:43;;;;;;;9.95;3.95;;;9.60;99.90;;;;;;5086022;28;20123;-78
2022/04/26 07:59:08;;;;;;;10.75;4.38;;;9.60;99.90;;;;;;5120425;27;20562;-80
2022/04/26 08:01:35;;;;;;;11.80;4.53;;;9.70;99.90;;;;;;5109854;27;20048;-80
2022/04/26 08:04:01;;;;;;;8.45;4.75;;;9.80;99.90;;;;;;5116972;27;20363;-81
2022/04/26 08:06:27;;;;;;;7.68;3.40;;;10.10;99.90;;;;;;5112497;27;20047;-83
2022/04/26 08:08:54;;;;;;;7.80;3.47;;;10.30;99.90;;;;;;5084690;27;20049;-81
2022/04/26 08:11:21;;;;;;;7.70;3.38;;;10.50;99.90;;;;;;5098197;27;20196;-80
2022/04/26 08:13:47;;;;;;;6.97;3.45;;;10.70;99.90;;;;;;5094463;27;20055;-80
2022/04/26 08:16:13;;;;;;;7.25;3.63;;;10.80;99.90;;;;;;5079064;27;20040;-81
2022/04/26 08:18:42;;;;;;;7.97;3.75;;;10.80;99.90;;;;;;5116185;27;20548;-83
2022/04/26 08:21:08;;;;;;;7.47;3.55;;;10.80;99.90;;;;;;5081371;28;20043;-83
2022/04/26 08:27:22;;;;;;;8.40;3.38;;;10.70;99.90;;;;;;5108387;27;20044;-81
2022/04/26 08:29:09;;;;;;;7.80;3.90;;;10.40;99.90;;;;;;5096255;27;20211;-83
2022/04/26 08:31:36;;;;;;;11.02;4.28;;;10.30;99.90;;;;;;5101366;27;20598;-81
2022/04/26 08:34:02;;;;;;;7.88;4.10;;;10.20;99.90;;;;;;5079669;27;20508;-81
2022/04/26 08:36:31;;;;;;;8.20;3.40;;;10.20;99.90;;;;;;5111357;27;20134;-83
2022/04/26 08:38:57;;;;;;;7.03;3.40;;;10.10;99.90;;;;;;5108365;27;20387;-83
2022/04/26 08:41:23;;;;;;;8.15;3.85;;;10.20;99.90;;;;;;5096103;28;20595;-83
2022/04/26 08:43:49;;;;;;;9.52;3.92;;;10.30;99.90;;;;;;5095736;28;20131;-85
2022/04/26 08:46:16;;;;;;;8.68;4.45;;;10.30;99.90;;;;;;5088446;28;20035;-80
2022/04/26 08:51:26;;;;;;;7.32;3.70;;;10.50;99.90;;;;;;5117288;27;20067;-81
2022/04/26 08:53:51;;;;;;;9.23;3.85;;;10.70;99.90;;;;;;5104505;27;20148;-82
2022/04/26 08:56:20;;;;;;;9.23;4.20;;;10.70;99.90;;;;;;5080154;27;20116;-82
2022/04/26 08:58:50;;;;;;;8.70;4.32;;;10.80;99.90;;;;;;5097605;27;20478;-82
2022/04/26 09:01:23;;;;;;;8.65;4.45;;;10.80;99.90;;;;;;5060845;28;20039;-81
2022/04/26 09:03:55;;;;;;;9.13;3.97;;;10.90;99.90;;;;;;5100632;27;20047;-87
2022/04/26 09:06:45;;;;;;;10.70;4.45;;;11.10;99.90;;;;;;5097516;27;20470;-81
2022/04/26 09:09:51;;;;;;;6.90;3.97;;;11.50;99.90;;;;;;5112394;27;20039;-84
2022/04/26 09:12:17;;;;;;;6.80;4.32;;;11.80;99.90;;;;;;5069906;27;20471;-83
2022/04/26 09:14:50;;;;;;;8.00;4.00;;;12.00;99.90;;;;;;5097854;27;20104;-80
2022/04/26 09:17:16;;;;;;;7.32;3.80;;;12.10;99.90;;;;;;5095416;27;20447;-82
2022/04/26 09:19:56;;;;;;;8.02;4.53;;;12.10;99.90;;;;;;5076411;27;20157;-84
2022/04/26 09:22:25;;;;;;;7.15;4.60;;;11.90;99.90;;;;;;5111740;27;20081;-84
2022/04/26 09:24:59;;;;;;;8.67;4.60;;;11.50;99.90;;;;;;5093026;27;20052;-83
2022/04/26 09:27:26;;;;;;;9.35;4.47;;;11.40;99.90;;;;;;5092508;27;20293;-83
2022/04/26 09:29:51;;;;;;;6.93;3.95;;;11.20;99.90;;;;;;5080674;28;20082;-85
2022/04/26 09:32:18;;;;;;;8.63;3.72;;;11.10;99.90;;;;;;5081223;27;20347;-83
2022/04/26 09:34:43;;;;;;;10.23;4.45;;;11.20;99.90;;;;;;5114563;27;20043;-83
2022/04/26 09:37:11;;;;;;;7.88;4.65;;;11.50;99.90;;;;;;5095247;27;20036;-82
2022/04/26 09:39:39;;;;;;;7.47;4.00;;;11.70;99.90;;;;;;5093259;27;20055;-83
2022/04/26 09:42:05;;;;;;;8.45;4.03;;;12.00;99.90;;;;;;5100049;27;20433;-80
2022/04/26 09:44:40;;;;;;;6.38;3.45;;;12.20;99.90;;;;;;5092944;28;20064;-81
2022/04/26 09:47:06;;;;;;;6.95;3.78;;;12.60;99.90;;;;;;5104343;28;20418;-84
2022/04/26 09:49:37;;;;;;;6.65;3.88;;;12.60;99.90;;;;;;5071306;28;20128;-84
2022/04/26 09:52:10;;;;;;;4.85;3.13;;;12.40;99.90;;;;;;5115387;27;20065;-84
2022/04/26 09:54:37;;;;;;;9.30;3.55;;;12.20;99.90;;;;;;5118913;27;20501;-83
2022/04/26 09:57:05;;;;;;;8.00;3.88;;;12.00;99.90;;;;;;5085755;28;20054;-84
2022/04/26 09:59:38;;;;;;;7.03;3.40;;;12.00;99.90;;;;;;5120160;27;20397;-85
2022/04/26 10:02:08;;;;;;;5.03;3.08;;;12.10;99.90;;;;;;5101090;28;20043;-78
2022/04/26 10:04:37;;;;;;;5.03;3.17;;;12.30;98.90;;;;;;5108720;27;20100;-84
2022/04/26 10:07:19;;;;;;;9.65;3.78;;;12.30;98.70;;;;;;5088117;27;20047;-81
2022/04/26 10:09:46;;;;;;;6.80;3.42;;;12.20;99.40;;;;;;5094268;27;20047;-80
2022/04/26 10:12:14;;;;;;;7.93;3.60;;;12.00;99.90;;;;;;5092317;27;20472;-82
2022/04/26 10:14:41;;;;;;;6.97;3.55;;;11.90;99.40;;;;;;5127211;27;20047;-82
2022/04/26 10:17:07;;;;;;;7.35;3.60;;;11.80;99.30;;;;;;5091464;28;20516;-83
2022/04/26 10:19:38;;;;;;;7.95;3.58;;;11.90;99.90;;;;;;5109383;27;20050;-82
2022/04/26 10:22:04;;;;;;;5.55;3.85;;;12.00;99.20;;;;;;5107781;28;20057;-79
2022/04/26 10:24:30;;;;;;;6.40;3.38;;;12.00;99.80;;;;;;5083098;28;20055;-83
2022/04/26 10:27:20;;;;;;;6.88;3.55;;;12.30;99.90;;;;;;5105786;27;20123;-83
2022/04/26 10:29:46;;;;;;;6.53;3.30;;;12.60;99.90;;;;;;5106837;27;20035;-81
2022/04/26 10:32:31;;;;;;;6.32;3.28;;;12.70;94.10;;;;;;5105205;28;20512;-84
2022/04/26 10:35:23;;;;;;;6.93;3.65;;;12.50;94.70;;;;;;5107200;27;20100;-79
2022/04/26 10:38:22;;;;;;;8.25;3.40;;;12.50;96.10;;;;;;5093333;27;20078;-83
2022/04/26 10:41:03;;;;;;;7.78;3.75;;;12.70;98.50;;;;;;5073103;27;20470;-80
2022/04/26 10:43:29;;;;;;;7.32;3.22;;;12.90;96.30;;;;;;5107452;28;20044;-83
2022/04/26 10:46:15;;;;;;;8.02;3.97;;;12.90;93.00;;;;;;5093834;28;20042;-83
2022/04/26 10:48:42;;;;;;;5.95;3.22;;;12.80;94.00;;;;;;5108462;28;20298;-82
2022/04/26 10:51:36;;;;;;;6.45;3.13;;;13.00;92.60;;;;;;5089770;28;20357;-83
2022/04/26 10:54:05;;;;;;;7.75;3.35;;;13.10;95.80;;;;;;5086681;27;20672;-81
2022/04/26 10:56:32;;;;;;;6.85;2.92;;;13.50;95.00;;;;;;5097573;27;20045;-84
2022/04/26 10:58:58;;;;;;;4.38;2.70;;;13.40;92.00;;;;;;5102200;28;20423;-85
2022/04/26 11:01:27;;;;;;;4.95;2.72;;;13.20;90.30;;;;;;5109882;27;20051;-83
2022/04/26 11:03:55;;;;;;;6.20;2.83;;;13.20;90.90;;;;;;5127805;27;20198;-81
2022/04/26 11:06:37;;;;;;;7.07;3.13;;;13.40;91.80;;;;;;5128957;27;20046;-82
2022/04/26 11:09:09;;;;;;;6.60;3.15;;;13.50;88.00;;;;;;5094865;27;20039;-82
2022/04/26 11:11:55;;;;;;;7.22;3.40;;;13.50;89.20;;;;;;5114295;27;20519;-84
2022/04/26 11:14:22;;;;;;;6.03;2.80;;;13.60;84.10;;;;;;5080256;27;20500;-81
2022/04/26 11:16:59;;;;;;;6.05;2.30;;;13.70;86.10;;;;;;5096149;27;20040;-82
2022/04/26 11:19:29;;;;;;;6.18;2.70;;;13.90;81.00;;;;;;5116185;27;20051;-86
2022/04/26 11:21:55;;;;;;;;;;;14.00;75.90;;;;;;5089736;28;20448;-83
2022/04/26 11:29:54;;;;;;;7.75;2.97;;;14.20;79.30;;;;;;5106381;27;20307;-86
2022/04/26 11:32:43;;;;;;;7.22;2.67;;;14.40;79.60;;;;;;5136241;27;20247;-84
2022/04/26 11:35:17;;;;;;;5.47;2.55;;;14.50;71.80;;;;;;5117626;27;20482;-84
2022/04/26 11:37:54;;;;;;;3.72;2.38;;;14.20;67.90;;;;;;5120187;27;20095;-84
2022/04/26 11:40:26;;;;;;;5.60;2.25;;;14.10;70.60;;;;;;5121599;27;20063;-81
2022/04/26 11:42:53;;;;;;;4.63;2.05;;;14.20;71.70;;;;;;5137000;27;20107;-82
2022/04/26 11:45:22;;;;;;;6.55;2.50;;;14.40;72.60;;;;;;5088318;27;20469;-86
2022/04/26 11:47:49;;;;;;;5.30;2.38;;;14.60;68.20;;;;;;5078525;27;20081;-82
2022/04/26 11:50:22;;;;;;;5.07;2.65;;;14.70;66.10;;;;;;5100465;27;20111;-82
2022/04/26 11:52:50;;;;;;;4.55;2.25;;;14.70;69.20;;;;;;5090516;27;20282;-81
2022/04/26 11:55:28;;;;;;;5.38;2.75;;;15.00;67.40;;;;;;5120049;27;20035;-85
2022/04/26 11:58:16;;;;;;;4.47;2.40;;;15.10;66.50;;;;;;5109584;27;20047;-85
2022/04/26 12:01:18;;;;;;;5.28;2.53;;;15.10;70.70;;;;;;5115632;27;20082;-85
2022/04/26 12:03:52;;;;;;;5.47;2.42;;;15.00;64.30;;;;;;5104543;27;20042;-82
2022/04/26 12:06:20;;;;;;;5.75;2.70;;;14.70;66.40;;;;;;5110084;27;20076;-84
2022/04/26 12:08:54;;;;;;;5.18;2.55;;;14.50;67.80;;;;;;5104076;27;20139;-83
2022/04/26 12:11:26;;;;;;;5.43;2.55;;;14.60;71.20;;;;;;5109373;27;20130;-85
2022/04/26 12:14:14;;;;;;;7.18;2.85;;;14.80;68.10;;;;;;5101046;27;20168;-82
2022/04/26 12:16:54;;;;;;;5.88;2.58;;;14.90;66.50;;;;;;5109707;27;20270;-82
2022/04/26 12:19:35;;;;;;;3.67;2.28;;;14.70;65.60;;;;;;5103807;27;20080;-86
2022/04/26 12:22:01;;;;;;;5.75;2.63;;;14.50;62.70;;;;;;5121364;27;20054;-83
2022/04/26 12:24:30;;;;;;;5.93;3.13;;;14.30;67.40;;;;;;5125272;27;20409;-84
2022/04/26 12:27:01;;;;;;;5.35;2.85;;;14.20;67.20;;;;;;5090948;27;20035;-86
2022/04/26 12:29:39;;;;;;;5.50;2.65;;;14.30;69.10;;;;;;5108555;27;20054;-90
2022/04/26 12:32:05;;;;;;;6.30;2.75;;;14.50;64.10;;;;;;5113170;27;20047;-83
2022/04/26 12:34:36;;;;;;;6.97;2.63;;;14.50;64.30;;;;;;5110808;27;20050;-83
2022/04/26 12:37:20;;;;;;;5.35;2.70;;;14.40;66.30;;;;;;5089098;27;20338;-83
2022/04/26 12:39:49;;;;;;;4.68;2.92;;;14.60;67.90;;;;;;5106016;27;20089;-82
2022/04/26 12:42:17;;;;;;;7.18;3.20;;;14.90;65.40;;;;;;5125501;27;20070;-86
2022/04/26 12:44:56;;;;;;;5.53;2.88;;;14.80;64.50;;;;;;5119002;27;20086;-81
2022/04/26 12:52:55;;;;;;;6.32;2.78;;;14.70;67.60;;;;;;5109104;27;20051;-83
2022/04/26 12:55:33;;;;;;;5.55;2.40;;;14.80;67.10;;;;;;5101104;27;20405;-84
2022/04/26 12:58:05;;;;;;;4.95;3.03;;;14.90;65.20;;;;;;5127713;27;20050;-86
2022/04/26 13:00:33;;;;;;;6.32;3.50;;;14.60;60.60;;;;;;5127082;27;20445;-82
2022/04/26 13:03:02;;;;;;;6.07;3.13;;;14.40;61.90;;;;;;5110563;27;20081;-84
2022/04/26 13:05:35;;;;;;;5.10;2.78;;;14.30;61.60;;;;;;5095990;27;20130;-87
2022/04/26 13:08:02;;;;;;;6.00;2.50;;;14.40;67.50;;;;;;5111818;27;20050;-83
2022/04/26 13:10:28;;;;;;;6.63;2.85;;;14.80;63.00;;;;;;5078778;27;20042;-83
2022/04/26 13:12:54;;;;;;;7.18;2.95;;;15.00;60.30;;;;;;5099236;27;20046;-84
2022/04/26 13:15:23;;;;;;;4.93;2.38;;;15.10;61.10;;;;;;5108365;27;20037;-86
2022/04/26 13:17:49;;;;;;;5.00;2.80;;;15.30;59.00;;;;;;5122578;27;20118;-88
2022/04/26 13:20:15;;;;;;;5.35;2.33;;;15.50;58.00;;;;;;5094376;27;20117;-85
2022/04/26 13:22:41;;;;;;;4.63;2.40;;;15.40;59.50;;;;;;5114138;27;20134;-87
2022/04/26 13:25:08;;;;;;;6.68;2.22;;;15.30;60.30;;;;;;5101873;27;20047;-87
2022/04/26 13:27:35;;;;;;;7.47;3.15;;;15.30;60.50;;;;;;5111512;27;20137;-82
2022/04/26 13:30:04;;;;;;;4.97;2.65;;;15.20;60.50;;;;;;5123622;27;20058;-84
2022/04/26 13:32:30;;;;;;;5.47;2.33;;;15.20;59.90;;;;;;5057935;27;20054;-81
2022/04/26 13:34:57;;;;;;;5.53;2.45;;;15.10;60.70;;;;;;5074275;27;20051;-84
2022/04/26 13:37:24;;;;;;;5.60;2.78;;;14.90;59.60;;;;;;5091533;27;20039;-83
2022/04/26 13:39:50;;;;;;;4.70;2.72;;;14.60;60.90;;;;;;5126133;27;20081;-87
2022/04/26 13:42:17;;;;;;;8.52;2.90;;;14.50;64.60;;;;;;5092629;27;20515;-87
2022/04/26 13:44:43;;;;;;;4.80;2.50;;;14.70;63.80;;;;;;5110131;27;20082;-85
2022/04/26 13:47:09;;;;;;;5.07;2.58;;;15.10;64.40;;;;;;5110879;27;20085;-86
2022/04/26 13:49:42;;;;;;;5.38;2.67;;;15.40;61.30;;;;;;5094441;27;20050;-86
2022/04/26 13:52:09;;;;;;;5.80;2.60;;;15.70;64.30;;;;;;5128354;27;20073;-86
2022/04/26 13:54:36;;;;;;;5.55;2.58;;;16.10;58.50;;;;;;5111445;27;20561;-83
2022/04/26 13:57:05;;;;;;;5.50;2.53;;;16.20;59.30;;;;;;5118584;27;20534;-85
2022/04/26 13:59:31;;;;;;;5.28;2.65;;;16.30;57.70;;;;;;5103556;27;20050;-84
2022/04/26 14:01:57;;;;;;;6.55;2.63;;;16.30;58.90;;;;;;5106183;28;20051;-85
2022/04/26 14:04:26;;;;;;;4.70;2.20;;;16.50;59.40;;;;;;5102822;27;20420;-86
2022/04/26 14:06:52;;;;;;;5.43;2.40;;;16.60;58.50;;;;;;5123959;27;20281;-85
2022/04/26 14:09:18;;;;;;;5.78;2.90;;;17.00;57.10;;;;;;5110918;27;20099;-85
2022/04/26 14:11:48;;;;;;;4.45;2.47;;;16.90;55.90;;;;;;5093982;27;20500;-85
2022/04/26 14:22:32;;;;;;;5.50;2.28;;;16.80;54.30;;;;;;5114264;27;20101;-81
2022/04/26 14:25:11;;;;;;;5.15;2.45;;;16.40;56.60;;;;;;5126457;27;20157;-83
2022/04/26 14:27:43;;;;;;;4.63;2.63;;;16.20;56.30;;;;;;5112381;27;20114;-86
2022/04/26 14:30:11;;;;;;;4.40;2.92;;;16.20;56.80;;;;;;5111613;27;20035;-85
2022/04/26 14:32:37;;;;;;;6.22;3.20;;;16.30;55.40;;;;;;5111494;27;20054;-82
2022/04/26 14:35:04;;;;;;;5.28;2.75;;;16.20;56.20;;;;;;5093661;27;20047;-85
2022/04/26 14:37:33;;;;;;;5.43;2.58;;;16.10;57.00;;;;;;5108800;27;20086;-86
2022/04/26 14:40:47;;;;;;;7.75;2.65;;;16.30;57.30;;;;;;5089241;27;20095;-83
2022/04/26 14:43:14;;;;;;;5.00;2.60;;;16.40;56.70;;;;;;5081608;27;20137;-88
2022/04/26 14:45:45;;;;;;;5.15;2.70;;;16.10;56.30;;;;;;5085465;28;20050;-84
2022/04/26 14:48:12;;;;;;;6.97;3.35;;;15.70;57.50;;;;;;5108755;28;20039;-84
2022/04/26 14:50:39;;;;;;;5.97;2.30;;;15.30;58.30;;;;;;5111786;27;20057;-86
2022/04/26 14:53:05;;;;;;;7.03;3.10;;;14.80;60.20;;;;;;5100802;27;20446;-86
2022/04/26 14:55:31;;;;;;;5.93;3.10;;;14.50;62.90;;;;;;5081735;27;20239;-85
2022/04/26 14:57:57;;;;;;;6.32;2.65;;;14.40;65.70;;;;;;5099928;27;20154;-85
2022/04/26 15:00:23;;;;;;;4.38;2.97;;;14.60;66.50;;;;;;5087924;27;20491;-84
2022/04/26 15:02:49;;;;;;;7.03;3.50;;;14.40;64.90;;;;;;5096701;27;20115;-83
2022/04/26 15:05:16;;;;;;;5.70;3.00;;;14.30;65.10;;;;;;5121049;27;20074;-86
2022/04/26 15:10:27;;;;;;;4.47;2.85;;;14.50;68.60;;;;;;5115015;27;20047;-84
2022/04/26 15:18:22;;;;;;;5.50;3.00;;;14.00;70.60;;;;;;5108863;27;20251;-86
2022/04/26 15:20:52;;;;;;;5.40;3.00;;;13.90;70.90;;;;;;5110869;27;20126;-85
2022/04/26 15:23:19;;;;;;;6.40;2.80;;;13.60;72.50;;;;;;5112268;27;20077;-81
2022/04/26 15:25:52;;;;;;;6.40;2.72;;;13.40;75.20;;;;;;5110755;27;20051;-84
2022/04/26 15:28:19;;;;;;;8.30;2.78;;;13.20;78.80;;;;;;5108766;27;20107;-83
2022/04/26 15:30:46;;;;;;;8.80;3.30;;;13.10;80.70;;;;;;5108612;27;20058;-83
2022/04/26 15:33:12;;;;;;;5.07;3.03;;;13.20;82.00;;;;;;5095444;27;20134;-83
2022/04/26 15:35:38;;;;;;;5.45;2.88;;;13.50;81.40;;;;;;5112464;27;20105;-85
2022/04/26 15:38:07;;;;;;;4.18;2.65;;;13.90;81.50;;;;;;5096094;27;20042;-86
2022/04/26 15:40:34;;;;;;;7.07;3.20;;;14.20;79.30;;;;;;5113055;27;20479;-85
2022/04/26 15:43:00;;;;;;;7.57;2.90;;;14.40;76.00;;;;;;5108098;27;20275;-85
2022/04/26 15:49:11;;;;;;;5.32;2.55;;;14.70;69.90;;;;;;5139446;27;20061;-87
2022/04/26 15:51:44;;;;;;;6.60;2.60;;;14.70;70.50;;;;;;5104302;27;20524;-87
2022/04/26 15:54:18;;;;;;;5.85;2.72;;;14.80;71.40;;;;;;5114318;27;20051;-85
2022/04/26 15:56:58;;;;;;;4.57;2.53;;;14.80;68.30;;;;;;5118294;27;20102;-86
2022/04/26 15:59:27;;;;;;;5.82;2.58;;;14.50;70.60;;;;;;5089904;27;20502;-82
2022/04/26 16:01:56;;;;;;;7.60;3.00;;;14.40;68.20;;;;;;5116923;27;20050;-83
2022/04/26 16:04:22;;;;;;;5.75;2.80;;;14.20;65.50;;;;;;5089553;27;20819;-85
2022/04/26 16:06:59;;;;;;;6.00;3.10;;;13.90;70.00;;;;;;5109668;27;20391;-80
2022/04/26 16:21:08;;;;;;;5.43;3.10;;;13.30;74.00;;;;;;5128805;27;20038;-81
2022/04/26 16:23:34;;;;;;;6.60;2.80;;;13.20;74.50;;;;;;5112130;27;20508;-87
2022/04/26 16:26:27;;;;;;;7.30;3.10;;;13.20;75.00;;;;;;5076955;27;20058;-85
2022/04/26 16:29:09;;;;;;;5.57;2.58;;;13.00;75.20;;;;;;5128765;27;20431;-86
2022/04/26 16:31:39;;;;;;;7.45;3.03;;;12.90;77.10;;;;;;5127422;27;20066;-85
2022/04/26 16:34:08;;;;;;;6.75;2.92;;;12.80;80.00;;;;;;5111095;27;20066;-83
2022/04/26 16:36:35;;;;;;;4.72;3.15;;;12.70;82.40;;;;;;5127971;27;20043;-81
2022/04/26 16:39:12;;;;;;;4.95;2.70;;;12.50;82.80;;;;;;5109298;27;20134;-84
2022/04/26 16:41:41;;;;;;;6.15;3.00;;;12.40;82.90;;;;;;5124196;27;20045;-82
2022/04/26 16:44:07;;;;;;;8.20;3.55;;;12.40;82.50;;;;;;5108031;27;20035;-82
2022/04/26 16:46:36;;;;;;;8.57;3.05;;;12.30;83.80;;;;;;5109074;27;20034;-84
2022/04/26 16:49:09;;;;;;;6.10;2.92;;;12.30;86.30;;;;;;5091716;27;20053;-80
2022/04/26 16:51:36;;;;;;;6.40;2.88;;;12.30;87.40;;;;;;5066198;27;20047;-87
2022/04/26 16:54:21;;;;;;;6.60;3.05;;;12.50;88.40;;;;;;5107912;27;20382;-84
2022/04/26 16:57:07;;;;;;;7.68;3.13;;;12.70;86.40;;;;;;5106195;27;20049;-86
2022/04/26 16:59:33;;;;;;;4.60;2.90;;;13.00;84.50;;;;;;5117003;27;20065;-84
2022/04/26 17:01:59;;;;;;;7.18;2.90;;;13.20;83.30;;;;;;5103918;27;20141;-80
2022/04/26 17:04:30;;;;;;;4.72;2.67;;;13.30;81.90;;;;;;5103641;27;20410;-83
2022/04/26 17:06:59;;;;;;;5.18;2.97;;;13.40;80.70;;;;;;5087365;27;20273;-83
2022/04/26 17:09:25;;;;;;;6.40;3.03;;;13.30;80.60;;;;;;5100689;27;20043;-84
2022/04/26 17:11:52;;;;;;;4.85;3.05;;;13.30;81.10;;;;;;5094173;27;20393;-77
2022/04/26 17:14:22;;;;;;;7.78;3.22;;;13.10;81.10;;;;;;5100245;27;20050;-82
2022/04/26 17:16:51;;;;;;;5.60;3.17;;;13.00;82.70;;;;;;5085020;27;20042;-84
2022/04/26 17:19:18;;;;;;;5.28;3.10;;;13.00;84.00;;;;;;5094379;27;20146;-82
2022/04/26 17:21:46;;;;;;;6.68;3.15;;;12.90;84.90;;;;;;5099422;27;20047;-79
2022/04/26 17:26:57;;;;;;;6.20;3.05;;;12.90;83.80;;;;;;5111980;27;20054;-85
2022/04/26 17:29:23;;;;;;;9.77;3.30;;;13.00;84.40;;;;;;5100304;27;20616;-83